sensor_id;sensor_type;location;lat;lon;timestamp;temperature;humidity
71173;DHT22;58875;51.996;4.504;2023-03-11T00:01:01;3.15;58.37
71173;DHT22;58875;51.996;4.504;2023-03-11T00:03:26;3.07;58.51
71173;DHT22;58875;51.996;4.504;2023-03-11T00:05:54;3.04;58.98
71173;DHT22;58875;51.996;4.504;2023-03-11T00:08:22;2.93;59.75
71173;DHT22;58875;51.996;4.504;2023-03-11T00:10:56;2.92;59.23
71173;DHT22;58875;51.996;4.504;2023-03-11T00:13:26;2.89;59.31
71173;DHT22;58875;51.996;4.504;2023-03-11T00:15:53;2.90;58.77
71173;DHT22;58875;51.996;4.504;2023-03-11T00:18:24;2.89;58.71
71173;DHT22;58875;51.996;4.504;2023-03-11T00:20:51;2.90;58.22
71173;DHT22;58875;51.996;4.504;2023-03-11T00:23:17;2.84;58.38
71173;DHT22;58875;51.996;4.504;2023-03-11T00:25:44;2.84;58.30
71173;DHT22;58875;51.996;4.504;2023-03-11T00:28:12;2.82;58.80
71173;DHT22;58875;51.996;4.504;2023-03-11T00:30:43;2.82;58.47
71173;DHT22;58875;51.996;4.504;2023-03-11T00:33:14;2.82;58.08
71173;DHT22;58875;51.996;4.504;2023-03-11T00:35:41;2.83;58.02
71173;DHT22;58875;51.996;4.504;2023-03-11T00:38:12;2.80;58.33
71173;DHT22;58875;51.996;4.504;2023-03-11T00:40:39;2.80;58.60
71173;DHT22;58875;51.996;4.504;2023-03-11T00:43:05;2.75;59.62
71173;DHT22;58875;51.996;4.504;2023-03-11T00:45:30;2.65;59.66
71173;DHT22;58875;51.996;4.504;2023-03-11T00:47:57;2.65;59.50
71173;DHT22;58875;51.996;4.504;2023-03-11T00:50:27;2.62;60.22
71173;DHT22;58875;51.996;4.504;2023-03-11T00:52:53;2.55;60.33
71173;DHT22;58875;51.996;4.504;2023-03-11T00:55:22;2.52;61.40
71173;DHT22;58875;51.996;4.504;2023-03-11T00:57:51;2.44;61.61
71173;DHT22;58875;51.996;4.504;2023-03-11T01:00:18;2.34;61.79
71173;DHT22;58875;51.996;4.504;2023-03-11T01:02:45;2.28;62.15
71173;DHT22;58875;51.996;4.504;2023-03-11T01:05:10;2.17;62.79
71173;DHT22;58875;51.996;4.504;2023-03-11T01:07:36;2.07;63.07
71173;DHT22;58875;51.996;4.504;2023-03-11T01:10:03;2.04;63.29
71173;DHT22;58875;51.996;4.504;2023-03-11T01:12:29;1.93;63.37
71173;DHT22;58875;51.996;4.504;2023-03-11T01:14:54;1.84;64.55
71173;DHT22;58875;51.996;4.504;2023-03-11T01:17:20;1.77;64.64
71173;DHT22;58875;51.996;4.504;2023-03-11T01:19:47;1.74;65.50
71173;DHT22;58875;51.996;4.504;2023-03-11T01:22:12;1.74;65.62
71173;DHT22;58875;51.996;4.504;2023-03-11T01:24:38;1.75;65.61
71173;DHT22;58875;51.996;4.504;2023-03-11T01:27:03;1.78;65.88
71173;DHT22;58875;51.996;4.504;2023-03-11T01:29:29;1.78;65.87
71173;DHT22;58875;51.996;4.504;2023-03-11T01:31:55;1.73;66.05
71173;DHT22;58875;51.996;4.504;2023-03-11T01:34:20;1.66;66.58
71173;DHT22;58875;51.996;4.504;2023-03-11T01:36:45;1.63;66.82
71173;DHT22;58875;51.996;4.504;2023-03-11T01:39:11;1.62;66.89
71173;DHT22;58875;51.996;4.504;2023-03-11T01:41:37;1.59;66.78
71173;DHT22;58875;51.996;4.504;2023-03-11T01:44:03;1.57;67.29
71173;DHT22;58875;51.996;4.504;2023-03-11T01:46:35;1.53;67.31
71173;DHT22;58875;51.996;4.504;2023-03-11T01:49:04;1.47;67.38
71173;DHT22;58875;51.996;4.504;2023-03-11T01:51:38;1.44;67.68
71173;DHT22;58875;51.996;4.504;2023-03-11T01:54:27;1.43;67.87
71173;DHT22;58875;51.996;4.504;2023-03-11T01:56:55;1.40;68.10
71173;DHT22;58875;51.996;4.504;2023-03-11T01:59:26;1.39;68.20
71173;DHT22;58875;51.996;4.504;2023-03-11T02:04:39;1.32;68.25
71173;DHT22;58875;51.996;4.504;2023-03-11T02:07:08;1.31;68.39
71173;DHT22;58875;51.996;4.504;2023-03-11T02:09:34;1.35;68.34
71173;DHT22;58875;51.996;4.504;2023-03-11T02:12:01;1.28;68.49
71173;DHT22;58875;51.996;4.504;2023-03-11T02:14:29;1.26;68.73
71173;DHT22;58875;51.996;4.504;2023-03-11T02:16:57;1.23;68.95
71173;DHT22;58875;51.996;4.504;2023-03-11T02:19:50;1.21;69.16
71173;DHT22;58875;51.996;4.504;2023-03-11T02:22:20;1.21;69.25
71173;DHT22;58875;51.996;4.504;2023-03-11T02:27:26;1.19;69.86
71173;DHT22;58875;51.996;4.504;2023-03-11T02:29:53;1.13;70.53
71173;DHT22;58875;51.996;4.504;2023-03-11T02:32:21;1.12;70.85
71173;DHT22;58875;51.996;4.504;2023-03-11T02:34:47;1.11;70.89
71173;DHT22;58875;51.996;4.504;2023-03-11T02:37:15;1.03;71.12
71173;DHT22;58875;51.996;4.504;2023-03-11T02:39:44;0.99;71.06
71173;DHT22;58875;51.996;4.504;2023-03-11T02:42:23;0.99;71.25
71173;DHT22;58875;51.996;4.504;2023-03-11T02:44:59;0.98;71.50
71173;DHT22;58875;51.996;4.504;2023-03-11T02:47:25;0.96;71.55
71173;DHT22;58875;51.996;4.504;2023-03-11T02:49:53;0.96;71.65
71173;DHT22;58875;51.996;4.504;2023-03-11T02:52:21;0.93;71.85
71173;DHT22;58875;51.996;4.504;2023-03-11T02:54:46;0.96;72.01
71173;DHT22;58875;51.996;4.504;2023-03-11T02:57:12;0.96;72.08
71173;DHT22;58875;51.996;4.504;2023-03-11T02:59:37;0.99;72.12
71173;DHT22;58875;51.996;4.504;2023-03-11T03:02:03;0.99;72.15
71173;DHT22;58875;51.996;4.504;2023-03-11T03:04:28;1.02;72.47
71173;DHT22;58875;51.996;4.504;2023-03-11T03:06:53;1.08;72.61
71173;DHT22;58875;51.996;4.504;2023-03-11T03:09:20;1.11;72.42
71173;DHT22;58875;51.996;4.504;2023-03-11T03:11:45;1.12;72.20
71173;DHT22;58875;51.996;4.504;2023-03-11T03:14:11;1.06;72.00
71173;DHT22;58875;51.996;4.504;2023-03-11T03:16:36;1.03;71.89
71173;DHT22;58875;51.996;4.504;2023-03-11T03:19:02;1.03;71.68
71173;DHT22;58875;51.996;4.504;2023-03-11T03:21:27;0.96;71.23
71173;DHT22;58875;51.996;4.504;2023-03-11T03:23:53;0.89;71.26
71173;DHT22;58875;51.996;4.504;2023-03-11T03:26:18;0.85;71.31
71173;DHT22;58875;51.996;4.504;2023-03-11T03:28:44;0.80;71.20
71173;DHT22;58875;51.996;4.504;2023-03-11T03:31:10;0.78;71.18
71173;DHT22;58875;51.996;4.504;2023-03-11T03:33:36;0.70;71.27
71173;DHT22;58875;51.996;4.504;2023-03-11T03:36:09;0.65;71.68
71173;DHT22;58875;51.996;4.504;2023-03-11T03:38:35;0.64;71.90
71173;DHT22;58875;51.996;4.504;2023-03-11T03:41:00;0.61;72.12
71173;DHT22;58875;51.996;4.504;2023-03-11T03:43:26;0.62;72.27
71173;DHT22;58875;51.996;4.504;2023-03-11T03:46:02;0.61;72.54
71173;DHT22;58875;51.996;4.504;2023-03-11T03:48:28;0.56;72.74
71173;DHT22;58875;51.996;4.504;2023-03-11T03:50:53;0.50;73.18
71173;DHT22;58875;51.996;4.504;2023-03-11T03:53:19;0.53;73.20
71173;DHT22;58875;51.996;4.504;2023-03-11T03:55:45;0.49;73.30
71173;DHT22;58875;51.996;4.504;2023-03-11T03:58:10;0.49;73.37
71173;DHT22;58875;51.996;4.504;2023-03-11T04:00:36;0.51;73.60
71173;DHT22;58875;51.996;4.504;2023-03-11T04:03:02;0.53;73.41
71173;DHT22;58875;51.996;4.504;2023-03-11T04:05:28;0.47;73.36
71173;DHT22;58875;51.996;4.504;2023-03-11T04:07:53;0.46;73.52
71173;DHT22;58875;51.996;4.504;2023-03-11T04:10:19;0.43;73.83
71173;DHT22;58875;51.996;4.504;2023-03-11T04:12:44;0.47;73.85
71173;DHT22;58875;51.996;4.504;2023-03-11T04:15:10;0.47;73.86
71173;DHT22;58875;51.996;4.504;2023-03-11T04:17:37;0.43;73.92
71173;DHT22;58875;51.996;4.504;2023-03-11T04:20:03;0.41;74.04
71173;DHT22;58875;51.996;4.504;2023-03-11T04:22:32;0.39;74.27
71173;DHT22;58875;51.996;4.504;2023-03-11T04:24:57;0.36;74.54
71173;DHT22;58875;51.996;4.504;2023-03-11T04:27:23;0.34;74.60
71173;DHT22;58875;51.996;4.504;2023-03-11T04:29:48;0.33;74.69
71173;DHT22;58875;51.996;4.504;2023-03-11T04:32:14;0.27;75.01
71173;DHT22;58875;51.996;4.504;2023-03-11T04:34:39;0.26;75.22
71173;DHT22;58875;51.996;4.504;2023-03-11T04:37:05;0.20;75.54
71173;DHT22;58875;51.996;4.504;2023-03-11T04:39:30;0.23;75.50
71173;DHT22;58875;51.996;4.504;2023-03-11T04:41:56;0.20;75.60
71173;DHT22;58875;51.996;4.504;2023-03-11T04:44:22;0.20;75.97
71173;DHT22;58875;51.996;4.504;2023-03-11T04:46:47;0.20;76.12
71173;DHT22;58875;51.996;4.504;2023-03-11T04:49:13;0.21;76.21
71173;DHT22;58875;51.996;4.504;2023-03-11T04:51:38;0.24;76.23
71173;DHT22;58875;51.996;4.504;2023-03-11T04:54:04;0.19;76.03
71173;DHT22;58875;51.996;4.504;2023-03-11T04:56:29;0.14;76.10
71173;DHT22;58875;51.996;4.504;2023-03-11T04:58:55;0.14;76.12
71173;DHT22;58875;51.996;4.504;2023-03-11T05:01:20;0.10;76.02
71173;DHT22;58875;51.996;4.504;2023-03-11T05:03:46;0.03;76.21
71173;DHT22;58875;51.996;4.504;2023-03-11T05:06:12;0.05;76.21
71173;DHT22;58875;51.996;4.504;2023-03-11T05:08:37;0.07;76.25
71173;DHT22;58875;51.996;4.504;2023-03-11T05:11:03;0.05;76.08
71173;DHT22;58875;51.996;4.504;2023-03-11T05:13:28;-0.10;76.22
71173;DHT22;58875;51.996;4.504;2023-03-11T05:15:54;-0.10;76.43
71173;DHT22;58875;51.996;4.504;2023-03-11T05:18:20;-0.10;76.35
71173;DHT22;58875;51.996;4.504;2023-03-11T05:20:46;-0.14;76.52
71173;DHT22;58875;51.996;4.504;2023-03-11T05:23:12;-0.11;76.46
71173;DHT22;58875;51.996;4.504;2023-03-11T05:25:37;-0.15;76.64
71173;DHT22;58875;51.996;4.504;2023-03-11T05:28:04;-0.19;76.57
71173;DHT22;58875;51.996;4.504;2023-03-11T05:30:29;-0.14;76.59
71173;DHT22;58875;51.996;4.504;2023-03-11T05:32:55;-0.18;76.47
71173;DHT22;58875;51.996;4.504;2023-03-11T05:35:21;-0.23;76.34
71173;DHT22;58875;51.996;4.504;2023-03-11T05:37:47;-0.25;76.40
71173;DHT22;58875;51.996;4.504;2023-03-11T05:40:15;-0.32;76.76
71173;DHT22;58875;51.996;4.504;2023-03-11T05:42:40;-0.33;76.93
71173;DHT22;58875;51.996;4.504;2023-03-11T05:45:07;-0.32;77.27
71173;DHT22;58875;51.996;4.504;2023-03-11T05:47:33;-0.35;77.22
71173;DHT22;58875;51.996;4.504;2023-03-11T05:49:59;-0.36;77.11
71173;DHT22;58875;51.996;4.504;2023-03-11T05:52:24;-0.35;77.20
71173;DHT22;58875;51.996;4.504;2023-03-11T05:54:51;-0.35;77.09
71173;DHT22;58875;51.996;4.504;2023-03-11T05:57:18;-0.36;77.29
71173;DHT22;58875;51.996;4.504;2023-03-11T05:59:44;-0.33;77.33
71173;DHT22;58875;51.996;4.504;2023-03-11T06:02:10;-0.32;77.36
71173;DHT22;58875;51.996;4.504;2023-03-11T06:04:35;-0.38;77.45
71173;DHT22;58875;51.996;4.504;2023-03-11T06:07:01;-0.36;77.49
71173;DHT22;58875;51.996;4.504;2023-03-11T06:09:27;-0.33;77.54
71173;DHT22;58875;51.996;4.504;2023-03-11T06:11:52;-0.38;77.51
71173;DHT22;58875;51.996;4.504;2023-03-11T06:14:18;-0.35;77.59
71173;DHT22;58875;51.996;4.504;2023-03-11T06:16:43;-0.36;77.48
71173;DHT22;58875;51.996;4.504;2023-03-11T06:19:09;-0.38;77.51
71173;DHT22;58875;51.996;4.504;2023-03-11T06:21:35;-0.39;77.65
71173;DHT22;58875;51.996;4.504;2023-03-11T06:24:01;-0.38;77.54
71173;DHT22;58875;51.996;4.504;2023-03-11T06:26:26;-0.41;77.70
71173;DHT22;58875;51.996;4.504;2023-03-11T06:28:52;-0.39;77.97
71173;DHT22;58875;51.996;4.504;2023-03-11T06:31:20;-0.35;78.07
71173;DHT22;58875;51.996;4.504;2023-03-11T06:33:47;-0.32;77.97
71173;DHT22;58875;51.996;4.504;2023-03-11T06:36:14;-0.22;78.06
71173;DHT22;58875;51.996;4.504;2023-03-11T06:38:40;-0.23;78.03
71173;DHT22;58875;51.996;4.504;2023-03-11T06:41:06;-0.15;78.15
71173;DHT22;58875;51.996;4.504;2023-03-11T06:43:33;-0.12;78.01
71173;DHT22;58875;51.996;4.504;2023-03-11T06:46:00;-0.10;77.98
71173;DHT22;58875;51.996;4.504;2023-03-11T06:48:27;-0.08;78.06
71173;DHT22;58875;51.996;4.504;2023-03-11T06:50:57;-0.02;78.04
71173;DHT22;58875;51.996;4.504;2023-03-11T06:53:24;-0.01;78.03
71173;DHT22;58875;51.996;4.504;2023-03-11T06:56:06;0.00;78.06
71173;DHT22;58875;51.996;4.504;2023-03-11T06:58:34;0.02;77.97
71173;DHT22;58875;51.996;4.504;2023-03-11T07:01:06;0.10;78.02
71173;DHT22;58875;51.996;4.504;2023-03-11T07:03:32;0.14;78.00
71173;DHT22;58875;51.996;4.504;2023-03-11T07:05:58;0.21;77.82
71173;DHT22;58875;51.996;4.504;2023-03-11T07:08:24;0.27;77.82
71173;DHT22;58875;51.996;4.504;2023-03-11T07:11:05;0.33;77.80
71173;DHT22;58875;51.996;4.504;2023-03-11T07:13:31;0.41;77.72
71173;DHT22;58875;51.996;4.504;2023-03-11T07:16:07;0.70;77.55
71173;DHT22;58875;51.996;4.504;2023-03-11T07:18:34;1.26;76.66
71173;DHT22;58875;51.996;4.504;2023-03-11T07:21:02;1.71;76.14
71173;DHT22;58875;51.996;4.504;2023-03-11T07:23:28;2.10;75.54
71173;DHT22;58875;51.996;4.504;2023-03-11T07:25:54;2.34;74.90
71173;DHT22;58875;51.996;4.504;2023-03-11T07:28:21;2.71;74.55
71173;DHT22;58875;51.996;4.504;2023-03-11T07:30:47;3.17;73.34
71173;DHT22;58875;51.996;4.504;2023-03-11T07:33:13;3.69;72.54
71173;DHT22;58875;51.996;4.504;2023-03-11T07:35:38;4.03;71.44
71173;DHT22;58875;51.996;4.504;2023-03-11T07:38:04;4.17;70.34
71173;DHT22;58875;51.996;4.504;2023-03-11T07:40:30;4.24;69.80
71173;DHT22;58875;51.996;4.504;2023-03-11T07:42:55;4.21;69.65
71173;DHT22;58875;51.996;4.504;2023-03-11T07:45:22;4.27;69.51
71173;DHT22;58875;51.996;4.504;2023-03-11T07:47:47;4.44;69.07
71173;DHT22;58875;51.996;4.504;2023-03-11T07:50:13;4.87;67.50
71173;DHT22;58875;51.996;4.504;2023-03-11T07:52:39;5.19;66.25
71173;DHT22;58875;51.996;4.504;2023-03-11T07:55:04;5.29;66.12
71173;DHT22;58875;51.996;4.504;2023-03-11T07:57:36;5.23;65.37
71173;DHT22;58875;51.996;4.504;2023-03-11T08:00:02;5.23;63.88
71173;DHT22;58875;51.996;4.504;2023-03-11T08:02:28;5.11;63.16
71173;DHT22;58875;51.996;4.504;2023-03-11T08:04:54;5.07;63.52
71173;DHT22;58875;51.996;4.504;2023-03-11T08:07:20;5.22;62.77
71173;DHT22;58875;51.996;4.504;2023-03-11T08:09:45;5.51;62.13
71173;DHT22;58875;51.996;4.504;2023-03-11T08:12:11;5.86;60.97
71173;DHT22;58875;51.996;4.504;2023-03-11T08:14:36;6.32;60.60
71173;DHT22;58875;51.996;4.504;2023-03-11T08:17:04;6.90;59.23
71173;DHT22;58875;51.996;4.504;2023-03-11T08:19:30;7.34;57.08
71173;DHT22;58875;51.996;4.504;2023-03-11T08:21:55;8.40;54.23
71173;DHT22;58875;51.996;4.504;2023-03-11T08:24:21;9.30;51.71
71173;DHT22;58875;51.996;4.504;2023-03-11T08:26:47;10.08;47.83
71173;DHT22;58875;51.996;4.504;2023-03-11T08:29:12;10.83;45.88
71173;DHT22;58875;51.996;4.504;2023-03-11T08:31:38;10.96;44.06
71173;DHT22;58875;51.996;4.504;2023-03-11T08:34:07;11.06;43.83
71173;DHT22;58875;51.996;4.504;2023-03-11T08:36:32;11.37;42.64
71173;DHT22;58875;51.996;4.504;2023-03-11T08:38:58;11.52;41.17
71173;DHT22;58875;51.996;4.504;2023-03-11T08:41:25;11.23;43.30
71173;DHT22;58875;51.996;4.504;2023-03-11T08:43:51;11.50;43.51
71173;DHT22;58875;51.996;4.504;2023-03-11T08:46:28;11.64;40.85
71173;DHT22;58875;51.996;4.504;2023-03-11T08:48:55;11.04;42.19
71173;DHT22;58875;51.996;4.504;2023-03-11T08:51:23;10.49;43.69
71173;DHT22;58875;51.996;4.504;2023-03-11T08:53:49;10.60;43.82
71173;DHT22;58875;51.996;4.504;2023-03-11T08:56:15;10.09;44.99
71173;DHT22;58875;51.996;4.504;2023-03-11T08:58:41;9.37;46.38
71173;DHT22;58875;51.996;4.504;2023-03-11T09:01:06;8.91;47.55
71173;DHT22;58875;51.996;4.504;2023-03-11T09:03:34;8.40;48.79
71173;DHT22;58875;51.996;4.504;2023-03-11T09:06:02;7.63;50.77
71173;DHT22;58875;51.996;4.504;2023-03-11T09:08:28;7.08;51.48
71173;DHT22;58875;51.996;4.504;2023-03-11T09:10:54;6.91;50.93
71173;DHT22;58875;51.996;4.504;2023-03-11T09:13:19;6.75;52.35
71173;DHT22;58875;51.996;4.504;2023-03-11T09:15:47;6.36;52.45
71173;DHT22;58875;51.996;4.504;2023-03-11T09:18:13;6.45;52.34
71173;DHT22;58875;51.996;4.504;2023-03-11T09:20:40;6.50;52.84
71173;DHT22;58875;51.996;4.504;2023-03-11T09:23:07;6.57;52.31
71173;DHT22;58875;51.996;4.504;2023-03-11T09:25:33;6.63;52.30
71173;DHT22;58875;51.996;4.504;2023-03-11T09:27:58;6.70;53.33
71173;DHT22;58875;51.996;4.504;2023-03-11T09:30:24;6.77;53.85
71173;DHT22;58875;51.996;4.504;2023-03-11T09:32:49;6.84;53.93
71173;DHT22;58875;51.996;4.504;2023-03-11T09:35:15;6.96;53.45
71173;DHT22;58875;51.996;4.504;2023-03-11T09:37:40;7.10;51.75
71173;DHT22;58875;51.996;4.504;2023-03-11T09:40:06;7.28;53.56
71173;DHT22;58875;51.996;4.504;2023-03-11T09:45:49;7.66;52.65
71173;DHT22;58875;51.996;4.504;2023-03-11T09:48:36;7.71;50.14
71173;DHT22;58875;51.996;4.504;2023-03-11T09:51:14;7.65;50.65
71173;DHT22;58875;51.996;4.504;2023-03-11T09:53:43;7.69;51.38
71173;DHT22;58875;51.996;4.504;2023-03-11T09:56:17;7.79;50.93
71173;DHT22;58875;51.996;4.504;2023-03-11T09:58:59;7.56;49.87
71173;DHT22;58875;51.996;4.504;2023-03-11T10:01:33;7.56;50.34
71173;DHT22;58875;51.996;4.504;2023-03-11T10:04:25;7.52;52.40
71173;DHT22;58875;51.996;4.504;2023-03-11T10:06:52;7.41;52.16
71173;DHT22;58875;51.996;4.504;2023-03-11T10:09:32;7.42;50.87
71173;DHT22;58875;51.996;4.504;2023-03-11T10:25:17;7.30;51.74
71173;DHT22;58875;51.996;4.504;2023-03-11T10:27:51;7.20;51.34
71173;DHT22;58875;51.996;4.504;2023-03-11T10:30:30;7.21;53.12
71173;DHT22;58875;51.996;4.504;2023-03-11T10:35:44;7.17;51.66
71173;DHT22;58875;51.996;4.504;2023-03-11T10:38:18;6.86;53.14
71173;DHT22;58875;51.996;4.504;2023-03-11T10:40:46;6.87;52.65
71173;DHT22;58875;51.996;4.504;2023-03-11T10:43:38;6.87;53.02
71173;DHT22;58875;51.996;4.504;2023-03-11T10:46:17;6.89;51.41
71173;DHT22;58875;51.996;4.504;2023-03-11T10:48:43;6.91;53.20
71173;DHT22;58875;51.996;4.504;2023-03-11T10:51:16;6.97;52.17
71173;DHT22;58875;51.996;4.504;2023-03-11T10:53:50;7.05;53.30
71173;DHT22;58875;51.996;4.504;2023-03-11T10:56:35;7.11;52.03
71173;DHT22;58875;51.996;4.504;2023-03-11T10:59:04;7.30;54.56
71173;DHT22;58875;51.996;4.504;2023-03-11T11:01:30;7.51;53.30
71173;DHT22;58875;51.996;4.504;2023-03-11T11:03:59;7.51;53.25
71173;DHT22;58875;51.996;4.504;2023-03-11T11:06:32;7.48;50.44
71173;DHT22;58875;51.996;4.504;2023-03-11T11:09:21;7.42;50.96
71173;DHT22;58875;51.996;4.504;2023-03-11T11:12:16;7.40;50.95
71173;DHT22;58875;51.996;4.504;2023-03-11T11:14:50;7.32;49.80
71173;DHT22;58875;51.996;4.504;2023-03-11T11:17:27;7.41;50.53
71173;DHT22;58875;51.996;4.504;2023-03-11T11:19:54;7.50;50.58
71173;DHT22;58875;51.996;4.504;2023-03-11T11:22:23;7.62;49.49
71173;DHT22;58875;51.996;4.504;2023-03-11T11:24:52;7.63;49.61
71173;DHT22;58875;51.996;4.504;2023-03-11T11:30:04;7.71;49.13
71173;DHT22;58875;51.996;4.504;2023-03-11T11:32:35;7.93;49.60
71173;DHT22;58875;51.996;4.504;2023-03-11T11:35:05;8.32;48.68
71173;DHT22;58875;51.996;4.504;2023-03-11T11:37:34;8.50;47.32
71173;DHT22;58875;51.996;4.504;2023-03-11T11:40:05;8.41;47.42
71173;DHT22;58875;51.996;4.504;2023-03-11T11:42:37;8.24;49.20
71173;DHT22;58875;51.996;4.504;2023-03-11T11:45:13;7.87;48.81
71173;DHT22;58875;51.996;4.504;2023-03-11T11:47:47;7.68;50.52
71173;DHT22;58875;51.996;4.504;2023-03-11T11:53:00;8.29;51.86
71173;DHT22;58875;51.996;4.504;2023-03-11T11:55:29;7.92;49.67
71173;DHT22;58875;51.996;4.504;2023-03-11T11:57:55;7.85;48.03
71173;DHT22;58875;51.996;4.504;2023-03-11T12:00:27;7.78;51.53
71173;DHT22;58875;51.996;4.504;2023-03-11T12:05:56;7.96;50.63
71173;DHT22;58875;51.996;4.504;2023-03-11T12:11:25;8.29;48.31
71173;DHT22;58875;51.996;4.504;2023-03-11T12:16:59;8.27;47.84
71173;DHT22;58875;51.996;4.504;2023-03-11T12:22:17;8.16;47.43
71173;DHT22;58875;51.996;4.504;2023-03-11T12:30:22;8.51;50.11
71173;DHT22;58875;51.996;4.504;2023-03-11T12:35:48;8.78;48.13
71173;DHT22;58875;51.996;4.504;2023-03-11T12:38:37;8.89;47.79
71173;DHT22;58875;51.996;4.504;2023-03-11T12:46:03;8.98;47.74
71173;DHT22;58875;51.996;4.504;2023-03-11T12:48:31;9.15;46.91
71173;DHT22;58875;51.996;4.504;2023-03-11T12:50:57;9.16;46.68
71173;DHT22;58875;51.996;4.504;2023-03-11T12:53:47;8.74;46.49
71173;DHT22;58875;51.996;4.504;2023-03-11T13:02:00;7.96;45.69
71173;DHT22;58875;51.996;4.504;2023-03-11T13:04:47;8.02;44.45
71173;DHT22;58875;51.996;4.504;2023-03-11T13:18:13;9.20;45.44
71173;DHT22;58875;51.996;4.504;2023-03-11T13:31:23;9.15;44.65
71173;DHT22;58875;51.996;4.504;2023-03-11T13:34:01;8.92;44.04
71173;DHT22;58875;51.996;4.504;2023-03-11T13:36:56;8.69;46.67
71173;DHT22;58875;51.996;4.504;2023-03-11T13:42:40;8.96;44.67
71173;DHT22;58875;51.996;4.504;2023-03-11T13:45:02;9.11;44.94
71173;DHT22;58875;51.996;4.504;2023-03-11T13:47:31;9.15;42.76
71173;DHT22;58875;51.996;4.504;2023-03-11T13:50:17;9.50;41.77
71173;DHT22;58875;51.996;4.504;2023-03-11T13:52:50;9.66;41.72
71173;DHT22;58875;51.996;4.504;2023-03-11T13:55:24;9.80;41.41
71173;DHT22;58875;51.996;4.504;2023-03-11T13:57:54;9.66;39.80
71173;DHT22;58875;51.996;4.504;2023-03-11T14:00:23;9.67;40.69
71173;DHT22;58875;51.996;4.504;2023-03-11T14:02:53;9.61;39.22
71173;DHT22;58875;51.996;4.504;2023-03-11T14:05:34;9.67;38.46
71173;DHT22;58875;51.996;4.504;2023-03-11T14:08:22;9.33;39.48
71173;DHT22;58875;51.996;4.504;2023-03-11T14:13:20;8.91;40.84
71173;DHT22;58875;51.996;4.504;2023-03-11T14:16:07;9.02;41.68
71173;DHT22;58875;51.996;4.504;2023-03-11T14:21:00;9.18;41.55
71173;DHT22;58875;51.996;4.504;2023-03-11T14:23:33;8.96;39.44
71173;DHT22;58875;51.996;4.504;2023-03-11T14:26:04;8.72;39.59
71173;DHT22;58875;51.996;4.504;2023-03-11T14:28:34;8.81;40.85
71173;DHT22;58875;51.996;4.504;2023-03-11T14:31:02;8.69;40.55
71173;DHT22;58875;51.996;4.504;2023-03-11T14:33:28;8.61;40.57
71173;DHT22;58875;51.996;4.504;2023-03-11T14:35:57;8.65;41.38
71173;DHT22;58875;51.996;4.504;2023-03-11T14:38:27;8.81;41.50
71173;DHT22;58875;51.996;4.504;2023-03-11T14:40:56;8.64;41.26
71173;DHT22;58875;51.996;4.504;2023-03-11T14:43:23;8.51;41.65
71173;DHT22;58875;51.996;4.504;2023-03-11T14:45:50;8.72;43.78
71173;DHT22;58875;51.996;4.504;2023-03-11T14:50:45;9.18;40.77
71173;DHT22;58875;51.996;4.504;2023-03-11T14:53:22;9.40;41.96
71173;DHT22;58875;51.996;4.504;2023-03-11T14:55:50;9.42;39.16
71173;DHT22;58875;51.996;4.504;2023-03-11T15:03:27;9.20;39.67
71173;DHT22;58875;51.996;4.504;2023-03-11T15:06:05;9.04;38.27
71173;DHT22;58875;51.996;4.504;2023-03-11T15:08:37;8.76;39.29
71173;DHT22;58875;51.996;4.504;2023-03-11T15:11:18;8.96;38.34
71173;DHT22;58875;51.996;4.504;2023-03-11T15:13:46;9.08;39.86
71173;DHT22;58875;51.996;4.504;2023-03-11T15:18:49;8.58;40.73
71173;DHT22;58875;51.996;4.504;2023-03-11T15:21:18;8.54;40.70
71173;DHT22;58875;51.996;4.504;2023-03-11T15:23:48;8.78;38.39
71173;DHT22;58875;51.996;4.504;2023-03-11T15:26:34;8.99;38.83
71173;DHT22;58875;51.996;4.504;2023-03-11T15:29:09;8.85;39.30
71173;DHT22;58875;51.996;4.504;2023-03-11T15:31:37;8.53;39.35
71173;DHT22;58875;51.996;4.504;2023-03-11T15:39:17;8.00;42.44
71173;DHT22;58875;51.996;4.504;2023-03-11T15:41:46;8.24;41.29
71173;DHT22;58875;51.996;4.504;2023-03-11T15:46:55;8.96;40.59
71173;DHT22;58875;51.996;4.504;2023-03-11T15:49:21;8.37;40.88
71173;DHT22;58875;51.996;4.504;2023-03-11T15:51:46;8.33;41.37
71173;DHT22;58875;51.996;4.504;2023-03-11T15:54:12;8.50;41.91
71173;DHT22;58875;51.996;4.504;2023-03-11T15:56:38;8.33;42.81
71173;DHT22;58875;51.996;4.504;2023-03-11T15:59:04;8.16;43.77
71173;DHT22;58875;51.996;4.504;2023-03-11T16:01:30;8.27;43.29
71173;DHT22;58875;51.996;4.504;2023-03-11T16:03:56;8.37;46.14
71173;DHT22;58875;51.996;4.504;2023-03-11T16:06:22;8.51;45.42
71173;DHT22;58875;51.996;4.504;2023-03-11T16:08:48;8.64;43.04
71173;DHT22;58875;51.996;4.504;2023-03-11T16:11:15;8.43;43.78
71173;DHT22;58875;51.996;4.504;2023-03-11T16:13:41;8.02;45.35
71173;DHT22;58875;51.996;4.504;2023-03-11T16:16:15;7.69;45.02
71173;DHT22;58875;51.996;4.504;2023-03-11T16:18:41;7.42;46.56
71173;DHT22;58875;51.996;4.504;2023-03-11T16:21:13;7.18;45.69
71173;DHT22;58875;51.996;4.504;2023-03-11T16:23:40;7.21;46.56
71173;DHT22;58875;51.996;4.504;2023-03-11T16:26:09;7.21;47.19
71173;DHT22;58875;51.996;4.504;2023-03-11T16:28:35;7.20;46.80
71173;DHT22;58875;51.996;4.504;2023-03-11T16:31:01;7.20;47.06
71173;DHT22;58875;51.996;4.504;2023-03-11T16:33:27;7.28;47.42
71173;DHT22;58875;51.996;4.504;2023-03-11T16:35:53;7.31;48.64
71173;DHT22;58875;51.996;4.504;2023-03-11T16:38:18;7.17;50.92
71173;DHT22;58875;51.996;4.504;2023-03-11T16:41:01;7.17;51.44
71173;DHT22;58875;51.996;4.504;2023-03-11T16:43:28;7.27;52.13
71173;DHT22;58875;51.996;4.504;2023-03-11T16:45:54;7.35;52.05
71173;DHT22;58875;51.996;4.504;2023-03-11T16:48:21;7.36;52.02
71173;DHT22;58875;51.996;4.504;2023-03-11T16:50:47;7.36;52.69
71173;DHT22;58875;51.996;4.504;2023-03-11T16:53:13;7.38;52.17
71173;DHT22;58875;51.996;4.504;2023-03-11T16:55:41;7.32;51.12
71173;DHT22;58875;51.996;4.504;2023-03-11T16:58:07;7.15;51.82
71173;DHT22;58875;51.996;4.504;2023-03-11T17:00:33;7.18;52.63
71173;DHT22;58875;51.996;4.504;2023-03-11T17:02:58;7.15;53.55
71173;DHT22;58875;51.996;4.504;2023-03-11T17:05:24;7.13;53.23
71173;DHT22;58875;51.996;4.504;2023-03-11T17:07:56;7.08;52.55
71173;DHT22;58875;51.996;4.504;2023-03-11T17:10:26;7.04;52.58
71173;DHT22;58875;51.996;4.504;2023-03-11T17:12:53;7.00;53.07
71173;DHT22;58875;51.996;4.504;2023-03-11T17:15:18;6.99;53.51
71173;DHT22;58875;51.996;4.504;2023-03-11T17:17:44;6.90;54.51
71173;DHT22;58875;51.996;4.504;2023-03-11T17:20:10;6.84;55.26
71173;DHT22;58875;51.996;4.504;2023-03-11T17:22:36;6.79;55.29
71173;DHT22;58875;51.996;4.504;2023-03-11T17:25:01;6.72;55.32
71173;DHT22;58875;51.996;4.504;2023-03-11T17:27:27;6.62;55.47
71173;DHT22;58875;51.996;4.504;2023-03-11T17:29:57;6.62;55.45
71173;DHT22;58875;51.996;4.504;2023-03-11T17:32:23;6.65;55.81
71173;DHT22;58875;51.996;4.504;2023-03-11T17:34:50;6.57;55.79
71173;DHT22;58875;51.996;4.504;2023-03-11T17:37:16;6.54;56.17
71173;DHT22;58875;51.996;4.504;2023-03-11T17:39:42;6.53;56.18
71173;DHT22;58875;51.996;4.504;2023-03-11T17:42:08;6.52;56.55